createdAt,value
2019-02-15T00:01:34.718Z,76.61
2019-02-15T00:05:42.499Z,76.45
2019-02-15T00:09:50.739Z,76.75
2019-02-15T00:13:58.992Z,76.49
2019-02-15T00:18:24.198Z,76.79
2019-02-15T00:22:32.454Z,76.89
2019-02-15T00:26:40.872Z,77.06
2019-02-15T00:30:48.565Z,77.41
2019-02-15T00:34:57.383Z,77.47
2019-02-15T00:39:06.335Z,77.18
2019-02-15T00:43:22.070Z,77.30
2019-02-15T00:47:46.634Z,77.25
2019-02-15T00:52:05.486Z,77.39
2019-02-15T00:56:41.839Z,77.13
2019-02-15T01:01:08.883Z,77.21
2019-02-15T01:05:44.658Z,77.30
2019-02-15T01:10:00.492Z,77.38
2019-02-15T01:14:08.209Z,77.66
2019-02-15T01:18:16.252Z,77.51
2019-02-15T01:22:24.379Z,77.22
2019-02-15T01:26:56.959Z,77.07
2019-02-15T01:31:21.498Z,76.93
2019-02-15T01:36:03.946Z,76.78
2019-02-15T01:40:23.033Z,76.58
2019-02-15T01:44:49.830Z,77.16
2019-02-15T01:48:57.602Z,76.99
2019-02-15T01:53:06.148Z,77.15
2019-02-15T01:57:13.922Z,77.35
2019-02-15T02:01:24.491Z,77.46
2019-02-15T02:05:32.681Z,77.76
2019-02-15T02:09:41.996Z,78.19
2019-02-15T02:13:50.140Z,77.98
2019-02-15T02:17:58.326Z,78.12
2019-02-15T02:22:06.213Z,78.36
2019-02-15T02:26:14.156Z,78.17
2019-02-15T02:30:22.475Z,78.37
2019-02-15T02:34:29.903Z,78.35
2019-02-15T02:38:38.134Z,78.27
2019-02-15T02:42:45.891Z,78.26
2019-02-15T02:46:54.209Z,78.22
2019-02-15T02:51:02.251Z,78.20
2019-02-15T02:55:10.556Z,77.87
2019-02-15T02:59:18.649Z,78.07
2019-02-15T03:03:26.897Z,78.03
2019-02-15T03:07:35.204Z,77.88
2019-02-15T03:11:42.917Z,77.83
2019-02-15T03:15:51.055Z,77.82
2019-02-15T03:19:58.837Z,77.77
2019-02-15T03:24:06.687Z,77.83
2019-02-15T03:28:15.290Z,78.09
2019-02-15T03:32:22.890Z,78.37
2019-02-15T03:36:52.433Z,78.37
2019-02-15T03:41:03.108Z,78.56
2019-02-15T03:45:11.009Z,78.39
2019-02-15T03:49:19.211Z,78.50
2019-02-15T03:53:27.431Z,78.38
2019-02-15T03:57:35.145Z,78.08
2019-02-15T04:01:43.779Z,77.92
2019-02-15T04:05:51.502Z,77.74
2019-02-15T04:09:59.287Z,78.01
2019-02-15T04:14:07.501Z,77.88
2019-02-15T04:18:15.308Z,77.67
2019-02-15T04:22:22.907Z,77.43
2019-02-15T04:26:31.052Z,77.35
2019-02-15T04:30:38.866Z,77.52
2019-02-15T04:34:47.064Z,77.06
2019-02-15T04:38:54.982Z,77.07
2019-02-15T04:43:02.582Z,77.04
2019-02-15T04:47:10.417Z,76.97
2019-02-15T04:51:18.393Z,76.86
2019-02-15T04:55:26.018Z,76.79
2019-02-15T04:59:34.375Z,76.68
2019-02-15T05:03:42.580Z,76.65
2019-02-15T05:07:50.282Z,76.82
2019-02-15T05:11:58.196Z,76.32
2019-02-15T05:16:06.542Z,76.34
2019-02-15T05:20:14.206Z,76.36
2019-02-15T05:24:22.361Z,75.96
2019-02-15T05:28:30.132Z,76.08
2019-02-15T05:32:37.791Z,75.97
2019-02-15T05:36:45.977Z,76.04
2019-02-15T05:40:53.689Z,75.49
2019-02-15T05:45:04.205Z,75.31
2019-02-15T05:49:11.761Z,75.03
2019-02-15T05:53:19.479Z,74.71
2019-02-15T05:57:27.603Z,74.74
2019-02-15T06:01:36.110Z,74.89
2019-02-15T06:05:43.836Z,74.99
2019-02-15T06:09:52.063Z,74.65
2019-02-15T06:14:00.283Z,74.10
2019-02-15T06:18:08.120Z,74.15
2019-02-15T06:22:16.396Z,74.28
2019-02-15T06:26:24.166Z,73.63
2019-02-15T06:30:32.698Z,73.57
2019-02-15T06:34:40.825Z,73.82
2019-02-15T06:38:48.437Z,73.61
2019-02-15T06:42:56.914Z,73.30
2019-02-15T06:47:05.173Z,73.36
2019-02-15T06:51:12.875Z,73.00
2019-02-15T06:55:21.016Z,72.70
2019-02-15T06:59:50.427Z,72.71
2019-02-15T07:04:38.573Z,72.42
2019-02-15T07:08:47.031Z,72.43
2019-02-15T07:12:54.782Z,72.02
2019-02-15T07:17:02.702Z,72.00
2019-02-15T07:21:10.651Z,71.76
2019-02-15T07:25:18.480Z,71.45
2019-02-15T07:29:26.404Z,71.00
2019-02-15T07:33:34.758Z,71.01
2019-02-15T07:37:42.475Z,71.10
2019-02-15T07:41:50.387Z,70.86
2019-02-15T07:45:58.316Z,70.45
2019-02-15T07:50:07.340Z,70.49
2019-02-15T07:54:15.755Z,69.48
2019-02-15T07:58:27.095Z,69.42
2019-02-15T08:02:34.998Z,68.89
2019-02-15T08:06:52.519Z,67.62
2019-02-15T08:11:00.722Z,67.62
2019-02-15T08:15:09.063Z,67.49
2019-02-15T08:19:16.981Z,67.32
2019-02-15T08:23:25.075Z,66.65
2019-02-15T08:27:32.896Z,65.71
2019-02-15T08:31:40.611Z,65.41
2019-02-15T08:35:48.302Z,65.76
2019-02-15T08:39:56.029Z,64.89
2019-02-15T08:44:04.340Z,64.14
2019-02-15T08:48:12.144Z,64.03
2019-02-15T08:52:20.325Z,64.43
2019-02-15T08:56:28.173Z,63.82
2019-02-15T09:00:36.082Z,63.95
2019-02-15T09:04:43.911Z,63.71
2019-02-15T09:08:51.881Z,63.87
2019-02-15T09:12:59.472Z,63.61
2019-02-15T09:17:07.916Z,63.64
2019-02-15T09:21:15.750Z,63.87
2019-02-15T09:25:23.597Z,64.64
2019-02-15T09:29:31.578Z,64.57
2019-02-15T09:33:39.400Z,65.04
2019-02-15T09:37:47.623Z,65.09
2019-02-15T09:41:55.726Z,65.34
2019-02-15T09:46:03.449Z,64.66
2019-02-15T09:50:12.265Z,64.93
2019-02-15T09:54:21.700Z,64.70
2019-02-15T09:58:29.635Z,64.78
2019-02-15T10:02:37.761Z,65.03
2019-02-15T10:06:46.025Z,64.00
2019-02-15T10:10:53.866Z,64.83
2019-02-15T10:15:01.818Z,63.81
2019-02-15T10:19:10.048Z,63.32
2019-02-15T10:23:17.856Z,63.29
2019-02-15T10:27:26.236Z,63.72
2019-02-15T10:31:33.955Z,62.79
2019-02-15T10:35:42.374Z,63.00
2019-02-15T10:39:50.181Z,62.55
2019-02-15T10:43:58.082Z,62.00
2019-02-15T10:48:06.463Z,62.98
2019-02-15T10:52:14.586Z,61.56
2019-02-15T10:56:22.350Z,61.74
2019-02-15T11:00:30.359Z,61.79
2019-02-15T11:04:38.379Z,61.55
2019-02-15T11:08:46.285Z,61.69
2019-02-15T11:12:54.186Z,61.71
2019-02-15T11:17:03.181Z,60.93
2019-02-15T11:21:10.942Z,60.82
2019-02-15T11:25:19.340Z,60.83
2019-02-15T11:29:27.894Z,60.55
2019-02-15T11:33:35.905Z,59.23
2019-02-15T11:37:43.821Z,57.60
2019-02-15T11:41:51.438Z,58.19
2019-02-15T11:45:59.732Z,58.24
2019-02-15T11:50:09.896Z,56.48
2019-02-15T11:54:23.507Z,56.14
2019-02-15T11:58:28.421Z,55.37
2019-02-15T12:02:36.323Z,55.96
2019-02-15T12:06:44.015Z,55.10
2019-02-15T12:10:52.150Z,56.43
2019-02-15T12:15:00.462Z,56.90
2019-02-15T12:19:08.193Z,56.42
2019-02-15T12:23:16.750Z,56.65
2019-02-15T12:27:24.723Z,58.31
2019-02-15T12:31:32.537Z,58.24
2019-02-15T12:35:40.335Z,56.54
2019-02-15T12:39:48.039Z,57.24
2019-02-15T12:43:55.934Z,57.84
2019-02-15T12:48:04.185Z,57.51
2019-02-15T12:52:11.725Z,57.24
2019-02-15T12:56:19.684Z,56.26
2019-02-15T13:00:27.711Z,56.52
2019-02-15T13:04:35.396Z,53.97
2019-02-15T13:08:44.623Z,54.66
2019-02-15T13:12:52.370Z,55.91
2019-02-15T13:17:00.203Z,55.16
2019-02-15T13:21:07.977Z,53.40
2019-02-15T13:25:16.203Z,54.21
2019-02-15T13:29:24.935Z,53.93
2019-02-15T13:33:32.932Z,54.61
2019-02-15T13:37:41.250Z,55.42
2019-02-15T13:41:48.990Z,55.63
2019-02-15T13:45:56.883Z,55.54
2019-02-15T13:50:04.825Z,56.89
2019-02-15T13:54:13.058Z,54.80
2019-02-15T13:58:21.125Z,54.18
2019-02-15T14:02:30.974Z,54.68
2019-02-15T14:06:38.251Z,54.89
2019-02-15T14:10:46.558Z,55.35
2019-02-15T14:14:54.532Z,55.60
2019-02-15T14:19:03.183Z,54.78
2019-02-15T14:23:11.219Z,54.30
2019-02-15T14:27:24.140Z,54.43
2019-02-15T14:31:33.355Z,55.68
2019-02-15T14:35:42.941Z,55.07
2019-02-15T14:39:50.843Z,54.73
2019-02-15T14:43:58.848Z,55.31
2019-02-15T14:48:07.495Z,55.33
2019-02-15T14:52:15.284Z,55.40
2019-02-15T14:56:23.324Z,55.11
2019-02-15T15:00:31.206Z,55.33
2019-02-15T15:04:39.019Z,54.93
2019-02-15T15:08:47.145Z,56.82
2019-02-15T15:12:54.843Z,55.93
2019-02-15T15:17:02.647Z,56.63
2019-02-15T15:21:10.587Z,56.94
2019-02-15T15:25:18.173Z,57.50
2019-02-15T15:29:27.057Z,57.80
2019-02-15T15:33:35.611Z,58.12
2019-02-15T15:37:43.571Z,58.42
2019-02-15T15:41:52.925Z,58.72
2019-02-15T15:46:01.827Z,58.88
2019-02-15T15:50:10.651Z,58.48
2019-02-15T15:54:19.392Z,58.45
2019-02-15T15:58:27.471Z,57.97
2019-02-15T16:02:35.398Z,57.27
2019-02-15T16:06:43.727Z,57.37
2019-02-15T16:10:52.277Z,57.53
2019-02-15T16:15:00.387Z,56.97
2019-02-15T16:19:10.213Z,56.92
2019-02-15T16:23:19.250Z,56.43
2019-02-15T16:27:30.065Z,56.03
2019-02-15T16:31:38.339Z,55.52
2019-02-15T16:35:46.708Z,55.36
2019-02-15T16:39:54.368Z,55.36
2019-02-15T16:44:02.549Z,55.74
2019-02-15T16:48:10.495Z,56.27
2019-02-15T16:52:18.824Z,56.31
2019-02-15T16:56:27.063Z,56.41
2019-02-15T17:00:34.914Z,56.74
2019-02-15T17:04:42.864Z,56.76
2019-02-15T17:08:51.099Z,56.94
2019-02-15T17:12:59.001Z,56.94
2019-02-15T17:17:06.924Z,57.16
2019-02-15T17:21:15.031Z,57.34
2019-02-15T17:25:25.231Z,56.88
2019-02-15T17:29:33.739Z,57.22
2019-02-15T17:33:41.518Z,57.78
2019-02-15T17:37:49.164Z,58.04
2019-02-15T17:41:57.374Z,57.57
2019-02-15T17:46:05.190Z,57.52
2019-02-15T17:50:13.097Z,57.47
2019-02-15T17:54:21.061Z,58.43
2019-02-15T17:58:28.897Z,57.50
2019-02-15T18:02:37.028Z,56.57
2019-02-15T18:06:45.343Z,58.06
2019-02-15T18:10:53.691Z,56.95
2019-02-15T18:15:01.886Z,57.98
2019-02-15T18:19:10.498Z,57.86
2019-02-15T18:23:19.762Z,57.78
2019-02-15T18:27:27.676Z,56.86
2019-02-15T18:31:35.627Z,56.81
2019-02-15T18:35:43.802Z,57.49
2019-02-15T18:39:52.243Z,58.11
2019-02-15T18:44:00.274Z,58.67
2019-02-15T18:48:08.746Z,58.76
2019-02-15T18:52:16.673Z,59.88
2019-02-15T18:56:24.663Z,59.67
2019-02-15T19:00:32.821Z,60.61
2019-02-15T19:04:41.295Z,61.16
2019-02-15T19:08:49.231Z,61.22
2019-02-15T19:12:57.595Z,61.37
2019-02-15T19:17:05.570Z,61.39
2019-02-15T19:21:13.724Z,60.84
2019-02-15T19:25:21.399Z,60.78
2019-02-15T19:29:29.739Z,60.43
2019-02-15T19:33:38.396Z,61.40
2019-02-15T19:37:46.188Z,61.67
2019-02-15T19:41:54.411Z,62.86
2019-02-15T19:46:02.422Z,62.97
2019-02-15T19:50:12.233Z,62.97
2019-02-15T19:54:20.319Z,62.65
2019-02-15T19:58:28.220Z,63.03
2019-02-15T20:02:36.209Z,63.98
2019-02-15T20:06:44.646Z,64.34
2019-02-15T20:10:53.388Z,65.02
2019-02-15T20:15:10.711Z,66.09
2019-02-15T20:19:18.423Z,67.00
2019-02-15T20:23:26.222Z,66.05
2019-02-15T20:27:34.126Z,65.54
2019-02-15T20:31:43.065Z,65.32
2019-02-15T20:35:50.992Z,66.08
2019-02-15T20:40:01.000Z,67.13
2019-02-15T20:44:10.296Z,68.51
2019-02-15T20:48:17.910Z,68.56
2019-02-15T20:52:26.019Z,68.52
2019-02-15T20:56:34.111Z,68.12
2019-02-15T21:00:41.955Z,67.79
2019-02-15T21:04:50.174Z,68.00
2019-02-15T21:08:58.312Z,68.09
2019-02-15T21:13:06.706Z,68.37
2019-02-15T21:17:15.026Z,67.99
2019-02-15T21:21:22.736Z,68.12
2019-02-15T21:25:30.665Z,68.21
2019-02-15T21:29:38.858Z,67.65
2019-02-15T21:33:46.791Z,67.69
2019-02-15T21:37:54.898Z,68.23
2019-02-15T21:42:02.606Z,67.86
2019-02-15T21:46:10.612Z,68.03
2019-02-15T21:50:18.948Z,67.92
2019-02-15T21:54:26.751Z,68.33
2019-02-15T21:58:34.748Z,67.87
2019-02-15T22:02:43.003Z,67.69
2019-02-15T22:06:50.534Z,68.22
2019-02-15T22:10:58.507Z,68.78
2019-02-15T22:15:07.766Z,68.61
2019-02-15T22:19:15.878Z,68.22
2019-02-15T22:23:24.154Z,67.88
2019-02-15T22:27:32.512Z,67.36
2019-02-15T22:31:40.414Z,68.33
2019-02-15T22:35:48.834Z,67.60
2019-02-15T22:39:57.058Z,67.58
2019-02-15T22:44:04.866Z,67.66
2019-02-15T22:48:13.186Z,67.47
2019-02-15T22:52:21.099Z,67.12
2019-02-15T22:56:28.795Z,66.53
2019-02-15T23:00:49.732Z,67.55
2019-02-15T23:04:58.085Z,67.70
2019-02-15T23:09:09.593Z,68.02
2019-02-15T23:13:17.963Z,66.95
2019-02-15T23:17:25.888Z,67.40
2019-02-15T23:21:33.788Z,67.57
2019-02-15T23:25:42.611Z,67.14
2019-02-15T23:29:50.650Z,66.95
2019-02-15T23:33:59.443Z,66.56
2019-02-15T23:38:07.292Z,67.14
2019-02-15T23:42:14.895Z,67.06
2019-02-15T23:46:22.899Z,66.43
2019-02-15T23:50:31.250Z,67.16
2019-02-15T23:54:38.849Z,66.46
2019-02-15T23:58:47.249Z,66.73
